Time;durP1;ratioP1;P1;durP2;ratioP2;P2;SDS_P1;SDS_P2;PMS_P1;PMS_P2;Temp;Humidity;BMP_temperature;BMP_pressure;BME280_temperature;BME280_humidity;BME280_pressure;Samples;Min_cycle;Max_cycle;Signal;HPM_P1;HPM_P2
2023/08/31 00:02:41;;;;;;;6.68;2.78;;;;;;;14.64;100.00;100702.69;4807301;29;20047;-65
2023/08/31 00:05:30;;;;;;;4.72;2.90;;;;;;;14.63;100.00;100701.88;4793780;29;20083;-62
2023/08/31 00:08:18;;;;;;;4.80;2.80;;;;;;;14.64;100.00;100702.69;4794580;29;20054;-64
2023/08/31 00:11:06;;;;;;;4.57;2.90;;;;;;;14.62;100.00;100705.75;4811181;29;20115;-63
2023/08/31 00:13:54;;;;;;;6.72;3.10;;;;;;;14.55;100.00;100699.00;4809803;29;20051;-63
2023/08/31 00:16:42;;;;;;;4.78;2.83;;;;;;;14.53;100.00;100703.94;4809599;29;20171;-64
2023/08/31 00:19:30;;;;;;;6.50;2.90;;;;;;;14.51;100.00;100703.44;4817092;29;20051;-65
2023/08/31 00:22:18;;;;;;;6.15;3.13;;;;;;;14.52;100.00;100705.06;4780881;29;20393;-64
2023/08/31 00:25:08;;;;;;;8.45;3.40;;;;;;;14.54;100.00;100702.88;4807083;29;20055;-64
2023/08/31 00:28:04;;;;;;;7.38;3.78;;;;;;;14.49;100.00;100699.03;4804861;29;20066;-64
2023/08/31 00:30:52;;;;;;;5.20;3.42;;;;;;;14.46;100.00;100696.09;4779817;29;20060;-64
2023/08/31 00:33:40;;;;;;;5.65;3.30;;;;;;;14.44;100.00;100693.66;4793803;29;20050;-63
2023/08/31 00:36:28;;;;;;;6.95;3.47;;;;;;;14.45;100.00;100700.75;4807016;29;20509;-63
2023/08/31 00:39:20;;;;;;;6.75;3.65;;;;;;;14.42;100.00;100706.81;4792658;29;20055;-64
2023/08/31 00:42:08;;;;;;;6.15;3.42;;;;;;;14.41;100.00;100694.25;4790640;29;20067;-64
2023/08/31 00:44:57;;;;;;;6.55;3.33;;;;;;;14.42;100.00;100695.06;4807351;29;20119;-64
2023/08/31 00:47:47;;;;;;;6.15;3.53;;;;;;;14.42;100.00;100690.38;4805846;29;20091;-64
2023/08/31 00:50:35;;;;;;;6.70;4.00;;;;;;;14.40;100.00;100698.09;4792410;29;20051;-63
2023/08/31 00:53:23;;;;;;;8.52;3.85;;;;;;;14.36;100.00;100680.63;4793475;29;20055;-63
2023/08/31 00:56:13;;;;;;;6.78;4.28;;;;;;;14.36;100.00;100686.09;4781651;29;20108;-64
2023/08/31 00:59:01;;;;;;;7.28;3.85;;;;;;;14.37;100.00;100674.00;4793999;29;20112;-64
2023/08/31 01:02:20;;;;;;;7.22;4.20;;;;;;;14.38;100.00;100685.78;4793409;29;20066;-64
2023/08/31 01:05:15;;;;;;;8.88;4.47;;;;;;;14.37;100.00;100687.72;4780840;29;20058;-61
2023/08/31 01:08:14;;;;;;;8.93;4.70;;;;;;;14.36;100.00;100688.84;4792508;29;20187;-64
2023/08/31 01:11:23;;;;;;;11.68;4.80;;;;;;;14.38;100.00;100689.38;4807736;29;20055;-68
2023/08/31 01:14:21;;;;;;;7.50;4.18;;;;;;;14.37;100.00;100687.72;4796275;29;20596;-66
2023/08/31 01:17:12;;;;;;;8.30;4.40;;;;;;;14.37;100.00;100697.88;4796898;29;20051;-63
2023/08/31 01:20:01;;;;;;;9.43;4.60;;;;;;;14.36;100.00;100691.59;4795953;29;20467;-66
2023/08/31 01:22:57;;;;;;;9.25;4.57;;;;;;;14.38;100.00;100688.53;4807270;29;20525;-64
2023/08/31 01:25:48;;;;;;;9.45;4.53;;;;;;;14.36;100.00;100697.06;4782329;29;20050;-64
2023/08/31 01:28:36;;;;;;;9.48;5.07;;;;;;;14.33;100.00;100700.38;4796959;29;20046;-64
2023/08/31 01:31:24;;;;;;;9.25;4.82;;;;;;;14.31;100.00;100705.38;4809128;29;20512;-63
2023/08/31 01:34:12;;;;;;;9.52;5.60;;;;;;;14.30;100.00;100698.25;4793180;29;20122;-64
2023/08/31 01:37:09;;;;;;;8.15;4.55;;;;;;;14.27;100.00;100709.81;4809483;29;20054;-63
2023/08/31 01:40:04;;;;;;;8.57;4.90;;;;;;;14.27;100.00;100707.06;4783956;29;20596;-64
2023/08/31 01:42:52;;;;;;;12.90;5.60;;;;;;;14.27;100.00;100710.59;4783127;29;20144;-64
2023/08/31 01:45:41;;;;;;;8.82;5.32;;;;;;;14.25;100.00;100710.09;4778841;29;20305;-64
2023/08/31 01:48:41;;;;;;;10.48;5.05;;;;;;;14.23;100.00;100714.22;4791414;29;20058;-64
2023/08/31 01:51:29;;;;;;;9.40;4.95;;;;;;;14.23;100.00;100722.47;4782416;29;20081;-63
2023/08/31 01:54:17;;;;;;;6.90;4.55;;;;;;;14.24;100.00;100715.88;4809448;29;20083;-63
2023/08/31 01:57:06;;;;;;;7.75;4.75;;;;;;;14.19;100.00;100713.19;4795266;29;20531;-63
2023/08/31 02:00:05;;;;;;;8.98;4.75;;;;;;;14.20;100.00;100712.09;4794566;29;20087;-62
2023/08/31 02:03:01;;;;;;;9.55;4.90;;;;;;;14.20;100.00;100712.09;4808191;29;20138;-64
2023/08/31 02:05:49;;;;;;;7.93;4.57;;;;;;;14.19;100.00;100705.81;4794663;29;20413;-65
2023/08/31 02:08:37;;;;;;;8.48;4.93;;;;;;;14.21;100.00;100705.50;4808177;29;20063;-64
2023/08/31 02:11:25;;;;;;;10.77;4.72;;;;;;;14.18;100.00;100706.09;4806776;29;20527;-64
2023/08/31 02:14:16;;;;;;;7.78;4.57;;;;;;;14.15;100.00;100703.94;4820414;29;20058;-65
2023/08/31 02:17:04;;;;;;;9.60;4.13;;;;;;;14.15;100.00;100706.69;4794668;29;20051;-63
2023/08/31 02:19:52;;;;;;;9.60;4.63;;;;;;;14.10;100.00;100704.03;4770197;29;20133;-64
2023/08/31 02:22:40;;;;;;;8.40;4.68;;;;;;;14.10;100.00;100704.03;4793541;29;20512;-65
2023/08/31 02:25:28;;;;;;;6.40;4.22;;;;;;;14.10;100.00;100698.53;4808572;29;20130;-65
2023/08/31 02:28:17;;;;;;;8.93;4.53;;;;;;;14.11;100.00;100700.97;4793803;29;20061;-63
2023/08/31 02:31:05;;;;;;;7.30;4.40;;;;;;;14.10;100.00;100710.31;4794931;29;20072;-65
2023/08/31 02:33:53;;;;;;;7.57;4.82;;;;;;;14.07;100.00;100711.72;4808412;29;20104;-64
2023/08/31 02:36:41;;;;;;;9.35;4.30;;;;;;;14.10;100.00;100709.50;4808354;29;20055;-62
2023/08/31 02:39:30;;;;;;;7.47;4.32;;;;;;;14.12;100.00;100707.25;4806453;29;20055;-64
2023/08/31 02:42:18;;;;;;;6.72;4.63;;;;;;;14.13;100.00;100712.44;4807302;29;20055;-62
2023/08/31 02:45:07;;;;;;;8.13;4.50;;;;;;;14.14;100.00;100710.53;4781901;29;20135;-62
2023/08/31 02:47:56;;;;;;;7.68;4.85;;;;;;;14.15;100.00;100714.91;4807595;29;20054;-64
2023/08/31 02:50:44;;;;;;;7.25;4.40;;;;;;;14.13;100.00;100715.19;4789641;29;20055;-63
2023/08/31 02:53:34;;;;;;;10.88;4.90;;;;;;;14.13;100.00;100711.63;4806849;29;20531;-63
2023/08/31 02:56:22;;;;;;;10.65;4.70;;;;;;;14.13;100.00;100717.13;4794856;29;20099;-63
2023/08/31 02:59:10;;;;;;;7.60;4.63;;;;;;;14.09;100.00;100714.13;4781811;29;20145;-63
2023/08/31 03:01:58;;;;;;;7.57;4.20;;;;;;;14.09;100.00;100713.31;4786821;29;20619;-63
2023/08/31 03:04:46;;;;;;;6.93;4.22;;;;;;;14.07;100.00;100717.19;4808873;29;20143;-63
2023/08/31 03:07:34;;;;;;;7.35;3.88;;;;;;;14.06;100.00;100715.53;4819147;29;20051;-63
2023/08/31 03:10:22;;;;;;;10.05;5.03;;;;;;;14.09;100.00;100716.06;4835219;29;20072;-62
2023/08/31 03:13:10;;;;;;;7.82;4.38;;;;;;;14.10;100.00;100714.97;4813558;29;20043;-61
2023/08/31 03:15:59;;;;;;;8.63;4.60;;;;;;;14.10;100.00;100709.50;4816074;29;20093;-64
2023/08/31 03:18:47;;;;;;;7.85;4.07;;;;;;;14.10;100.00;100709.50;4818769;29;20074;-64
2023/08/31 03:21:35;;;;;;;8.50;4.60;;;;;;;14.09;100.00;100716.06;4812626;29;20089;-58
2023/08/31 03:24:23;;;;;;;7.57;4.07;;;;;;;14.07;100.00;100716.38;4837963;29;20058;-61
2023/08/31 03:27:11;;;;;;;9.60;4.47;;;;;;;14.07;100.00;100716.38;4822601;29;20079;-63
2023/08/31 03:29:59;;;;;;;7.88;4.50;;;;;;;14.07;100.00;100711.72;4826220;29;20517;-63
2023/08/31 03:32:48;;;;;;;7.18;4.30;;;;;;;14.02;100.00;100714.53;4805431;29;20058;-63
2023/08/31 03:35:36;;;;;;;8.52;5.05;;;;;;;13.97;100.00;100714.56;4816953;29;20042;-62
2023/08/31 03:38:24;;;;;;;8.18;4.38;;;;;;;13.94;100.00;100723.38;4825628;29;20058;-63
2023/08/31 03:41:13;;;;;;;8.95;5.10;;;;;;;13.96;100.00;100710.19;4810116;29;20042;-64
2023/08/31 03:44:02;;;;;;;7.53;4.65;;;;;;;13.95;100.00;100708.59;4826013;29;20077;-64
2023/08/31 03:46:50;;;;;;;9.23;5.25;;;;;;;13.93;100.00;100710.78;4812783;29;20050;-62
2023/08/31 03:49:38;;;;;;;11.35;5.45;;;;;;;13.91;100.00;100710.28;4812906;29;20564;-63
2023/08/31 03:52:28;;;;;;;7.60;4.82;;;;;;;13.90;100.00;100708.63;4804742;29;20061;-62
2023/08/31 03:55:16;;;;;;;11.13;5.47;;;;;;;13.89;100.00;100715.22;4800139;29;20126;-63
2023/08/31 03:58:04;;;;;;;7.57;5.28;;;;;;;13.87;100.00;100711.16;4811921;29;20125;-64
2023/08/31 04:00:52;;;;;;;10.30;5.78;;;;;;;13.87;100.00;100709.22;4795213;29;20059;-63
2023/08/31 04:03:44;;;;;;;10.88;5.85;;;;;;;13.87;100.00;100714.69;4785628;29;20051;-63
2023/08/31 04:06:32;;;;;;;10.73;6.30;;;;;;;13.87;100.00;100711.16;4775733;29;20105;-64
2023/08/31 04:09:20;;;;;;;10.77;6.60;;;;;;;13.86;100.00;100707.59;4789431;29;20052;-63
2023/08/31 04:12:08;;;;;;;9.18;6.15;;;;;;;13.84;100.00;100713.34;4788590;29;20140;-64
2023/08/31 04:14:56;;;;;;;11.70;6.82;;;;;;;13.82;100.00;100718.31;4789659;29;20047;-63
2023/08/31 04:17:44;;;;;;;12.52;7.05;;;;;;;13.84;100.00;100724.31;4783411;29;20051;-63
2023/08/31 04:20:33;;;;;;;10.55;6.57;;;;;;;13.80;100.00;100727.94;4793360;29;20387;-64
2023/08/31 04:23:21;;;;;;;11.13;6.97;;;;;;;13.79;100.00;100731.78;4797133;29;20575;-64
2023/08/31 04:26:13;;;;;;;10.10;6.50;;;;;;;13.78;100.00;100733.72;4788636;29;20062;-65
2023/08/31 04:29:03;;;;;;;10.35;6.70;;;;;;;13.77;100.00;100729.31;4788856;29;20051;-64
2023/08/31 04:31:51;;;;;;;10.75;7.07;;;;;;;13.75;100.00;100731.53;4799255;29;20046;-64
2023/08/31 04:34:39;;;;;;;12.43;7.03;;;;;;;13.74;100.00;100734.59;4792628;29;20673;-63
2023/08/31 04:37:27;;;;;;;9.40;5.57;;;;;;;13.72;100.00;100728.56;4758086;30;20056;-64
2023/08/31 04:40:15;;;;;;;11.23;5.88;;;;;;;13.70;100.00;100739.00;4770916;29;20055;-64
2023/08/31 04:43:04;;;;;;;10.07;6.22;;;;;;;13.68;100.00;100738.47;4771622;29;20048;-65
2023/08/31 04:45:52;;;;;;;9.40;5.68;;;;;;;13.70;100.00;100744.47;4787076;29;20103;-64
2023/08/31 04:48:41;;;;;;;10.50;6.07;;;;;;;13.70;100.00;100739.81;4790951;29;20043;-64
2023/08/31 04:51:34;;;;;;;13.63;6.97;;;;;;;13.67;100.00;100745.06;4791572;29;20059;-65
2023/08/31 04:54:21;;;;;;;11.63;6.18;;;;;;;13.66;100.00;100746.16;4791634;29;20134;-63
2023/08/31 04:57:10;;;;;;;9.25;5.82;;;;;;;13.69;100.00;100751.06;4773175;30;20109;-63
2023/08/31 04:59:58;;;;;;;11.23;6.35;;;;;;;13.68;100.00;100757.63;4781064;29;20047;-63
2023/08/31 05:02:46;;;;;;;11.00;5.88;;;;;;;13.63;100.00;100750.28;4779999;29;20185;-62
2023/08/31 05:05:34;;;;;;;9.80;5.88;;;;;;;13.62;100.00;100763.19;4792735;29;20046;-63
2023/08/31 05:08:22;;;;;;;10.30;6.18;;;;;;;13.62;100.00;100767.84;4799189;29;20055;-63
2023/08/31 05:11:10;;;;;;;13.63;5.78;;;;;;;13.61;100.00;100767.03;4809649;29;20065;-64
2023/08/31 05:13:58;;;;;;;11.05;6.00;;;;;;;13.63;100.00;100773.00;4797543;29;20401;-63
2023/08/31 05:16:47;;;;;;;9.60;5.97;;;;;;;13.63;100.00;100778.47;4792265;29;20074;-63
2023/08/31 05:19:35;;;;;;;12.18;5.68;;;;;;;13.64;100.00;100780.13;4797810;29;20051;-64
2023/08/31 05:22:23;;;;;;;13.13;6.82;;;;;;;13.63;100.00;100783.16;4809271;29;20054;-65
2023/08/31 05:25:11;;;;;;;12.73;6.50;;;;;;;13.56;100.00;100788.97;4809400;29;20050;-65
2023/08/31 05:27:59;;;;;;;11.00;6.38;;;;;;;13.55;100.00;100792.81;4815174;29;20318;-63
2023/08/31 05:31:00;;;;;;;10.18;5.78;;;;;;;13.58;100.00;100791.41;4795653;29;20055;-66
2023/08/31 05:33:48;;;;;;;12.02;5.38;;;;;;;13.59;100.00;100799.34;4148748;29;10000704;-65
2023/08/31 05:36:36;;;;;;;9.90;5.85;;;;;;;13.61;100.00;100807.25;4787723;29;20062;-66
2023/08/31 05:39:25;;;;;;;11.57;6.38;;;;;;;13.62;100.00;100806.16;4786685;29;20204;-64
2023/08/31 05:42:13;;;;;;;11.07;5.55;;;;;;;13.62;100.00;100809.72;4808119;29;20058;-65
2023/08/31 05:45:01;;;;;;;12.73;5.95;;;;;;;13.59;100.00;100815.78;4804223;29;20051;-65
2023/08/31 05:47:50;;;;;;;9.70;5.10;;;;;;;13.59;100.00;100814.97;4805231;29;20059;-64
2023/08/31 05:50:38;;;;;;;11.85;5.57;;;;;;;13.61;100.00;100813.56;4777213;29;20066;-66
2023/08/31 05:53:26;;;;;;;9.57;5.00;;;;;;;13.63;100.00;100816.00;4806599;29;20055;-66
2023/08/31 05:56:15;;;;;;;9.88;4.88;;;;;;;13.63;100.00;100811.34;4805761;29;20781;-64
2023/08/31 05:59:03;;;;;;;9.20;4.93;;;;;;;13.63;100.00;100807.78;4805109;29;20069;-64
2023/08/31 06:01:51;;;;;;;9.82;5.03;;;;;;;13.63;100.00;100808.59;4803982;29;20090;-64
2023/08/31 06:04:43;;;;;;;9.07;5.20;;;;;;;13.66;100.00;100803.66;4806774;29;20055;-64
2023/08/31 06:07:31;;;;;;;10.35;4.55;;;;;;;13.68;100.00;100810.47;4805317;29;20051;-65
2023/08/31 06:10:19;;;;;;;13.68;5.40;;;;;;;13.69;100.00;100820.34;4802824;29;20055;-63
2023/08/31 06:13:07;;;;;;;9.13;4.72;;;;;;;13.71;100.00;100818.13;4805699;29;20526;-64
2023/08/31 06:15:56;;;;;;;6.78;4.25;;;;;;;13.74;100.00;100828.50;4791909;29;20053;-66
2023/08/31 06:18:44;;;;;;;8.50;4.15;;;;;;;13.76;100.00;100830.97;4805089;29;20132;-65
2023/08/31 06:21:32;;;;;;;7.75;4.10;;;;;;;13.76;100.00;100828.22;4809888;29;20051;-63
2023/08/31 06:24:20;;;;;;;7.07;3.97;;;;;;;13.75;100.00;100834.78;4811156;29;20070;-63
2023/08/31 06:27:08;;;;;;;12.82;4.15;;;;;;;13.80;100.00;100829.25;4812945;29;20058;-62
2023/08/31 06:29:56;;;;;;;11.60;4.97;;;;;;;13.80;100.00;100837.47;4819403;29;20053;-62
2023/08/31 06:32:45;;;;;;;8.13;4.35;;;;;;;13.81;100.00;100839.13;4818179;29;20107;-63
2023/08/31 06:35:33;;;;;;;9.68;4.43;;;;;;;13.81;100.00;100844.59;4802398;29;20058;-63
2023/08/31 06:38:21;;;;;;;7.60;4.30;;;;;;;13.83;100.00;100842.38;4802116;29;20062;-63
2023/08/31 06:41:09;;;;;;;7.53;3.95;;;;;;;13.84;100.00;100833.06;4801772;29;20061;-64
2023/08/31 06:43:57;;;;;;;8.48;4.72;;;;;;;13.84;100.00;100844.81;4811916;29;20111;-64
2023/08/31 06:46:45;;;;;;;10.10;4.68;;;;;;;13.88;100.00;100844.22;4816134;29;20062;-63
2023/08/31 06:49:34;;;;;;;9.82;4.70;;;;;;;13.95;100.00;100848.28;4807584;29;20078;-64
2023/08/31 06:52:22;;;;;;;9.02;4.60;;;;;;;13.98;100.00;100847.69;4807776;29;20051;-63
2023/08/31 06:55:19;;;;;;;8.07;4.15;;;;;;;13.99;100.00;100849.31;4805224;29;20134;-64
2023/08/31 06:58:07;;;;;;;13.65;6.40;;;;;;;14.10;100.00;100854.72;4808170;29;20051;-63
2023/08/31 07:00:55;;;;;;;9.63;4.47;;;;;;;14.06;100.00;100855.28;4807910;29;20066;-63
2023/08/31 07:03:43;;;;;;;13.32;4.63;;;;;;;14.09;100.00;100861.28;4782112;29;20512;-63
2023/08/31 07:06:33;;;;;;;9.60;4.50;;;;;;;14.09;100.00;100858.53;4807099;29;20138;-63
2023/08/31 07:09:21;;;;;;;8.98;4.85;;;;;;;14.12;100.00;100861.53;4792711;29;20153;-64
2023/08/31 07:12:10;;;;;;;14.52;5.13;;;;;;;14.14;100.00;100866.69;4781723;29;20520;-64
2023/08/31 07:14:58;;;;;;;11.90;5.38;;;;;;;14.15;100.00;100874.63;4795666;29;20051;-64
2023/08/31 07:17:46;;;;;;;9.55;5.47;;;;;;;14.14;100.00;100878.50;4806823;29;20051;-64
2023/08/31 07:20:34;;;;;;;12.82;5.22;;;;;;;14.18;100.00;100879.53;4805701;29;20059;-64
2023/08/31 07:23:22;;;;;;;9.60;4.75;;;;;;;14.19;100.00;100874.84;4792552;29;20042;-64
2023/08/31 07:26:10;;;;;;;13.18;5.45;;;;;;;14.25;100.00;100866.28;4806509;29;20095;-64
2023/08/31 07:28:58;;;;;;;13.45;5.57;;;;;;;14.24;100.00;100875.63;4790185;29;20051;-63
2023/08/31 07:31:49;;;;;;;10.30;4.60;;;;;;;14.30;100.00;100872.84;4788442;29;20062;-63
2023/08/31 07:34:37;;;;;;;10.18;4.65;;;;;;;14.34;100.00;100877.44;4796720;29;20058;-62
2023/08/31 07:37:25;;;;;;;9.40;5.20;;;;;;;14.37;100.00;100871.38;4819246;29;20063;-59
2023/08/31 07:40:13;;;;;;;12.20;4.65;;;;;;;14.40;100.00;100879.00;4825427;29;20076;-62
2023/08/31 07:43:02;;;;;;;10.02;4.15;;;;;;;14.42;100.00;100875.97;4809524;29;20051;-59
2023/08/31 07:45:50;;;;;;;11.50;5.20;;;;;;;14.46;100.00;100877.03;4818249;29;20571;-64
2023/08/31 07:48:38;;;;;;;8.15;4.20;;;;;;;14.47;100.00;100873.97;4784781;29;20560;-63
2023/08/31 07:51:27;;;;;;;11.07;4.95;;;;;;;14.48;100.00;100875.63;4844397;29;20050;-60
2023/08/31 07:54:22;;;;;;;10.95;4.55;;;;;;;14.52;100.00;100875.84;4840026;29;20065;-60
2023/08/31 07:57:10;;;;;;;8.93;4.43;;;;;;;14.57;100.00;100884.03;4799214;29;20047;-64
2023/08/31 07:59:58;;;;;;;13.07;5.07;;;;;;;14.58;100.00;100885.69;4807448;29;20066;-64
2023/08/31 08:02:46;;;;;;;14.63;5.40;;;;;;;14.58;100.00;100890.38;4807136;29;20058;-65
2023/08/31 08:05:34;;;;;;;10.77;4.90;;;;;;;14.61;100.00;100895.25;4810216;29;20081;-64
2023/08/31 08:08:22;;;;;;;11.10;5.03;;;;;;;14.64;100.00;100892.72;4796454;29;20051;-65
2023/08/31 08:11:10;;;;;;;12.07;5.07;;;;;;;14.68;100.00;100898.47;4789170;29;20118;-62
2023/08/31 08:13:58;;;;;;;12.63;5.00;;;;;;;14.71;100.00;100897.84;4793024;29;20077;-63
2023/08/31 08:16:46;;;;;;;13.25;5.63;;;;;;;14.77;100.00;100904.09;4807395;29;20148;-64
2023/08/31 08:19:34;;;;;;;11.75;5.80;;;;;;;14.79;100.00;100902.72;4809014;29;20054;-64
2023/08/31 08:22:24;;;;;;;9.95;5.13;;;;;;;14.84;100.00;100899.91;4809652;29;20122;-63
2023/08/31 08:25:12;;;;;;;11.15;5.75;;;;;;;14.88;100.00;100905.59;4818296;29;20047;-65
2023/08/31 08:28:03;;;;;;;10.10;5.35;;;;;;;14.94;100.00;100900.88;4829789;29;20057;-65
2023/08/31 08:30:51;;;;;;;9.05;5.25;;;;;;;15.02;100.00;100902.94;4827234;29;20058;-64
2023/08/31 08:33:40;;;;;;;9.52;5.25;;;;;;;15.02;100.00;100911.97;4822658;29;20047;-65
2023/08/31 08:36:28;;;;;;;10.00;5.18;;;;;;;15.04;100.00;100903.47;4785109;29;20061;-62
2023/08/31 08:39:15;;;;;;;15.65;4.75;;;;;;;15.14;100.00;100908.81;4796751;29;20059;-65
2023/08/31 08:42:05;;;;;;;10.05;4.80;;;;;;;15.24;100.00;100908.66;4810707;29;20528;-64
2023/08/31 08:44:53;;;;;;;8.88;4.78;;;;;;;15.23;100.00;100912.53;4796987;29;20508;-65
2023/08/31 08:47:43;;;;;;;13.38;4.97;;;;;;;15.32;100.00;100910.75;4797227;29;20050;-64
2023/08/31 08:50:33;;;;;;;13.60;5.00;;;;;;;15.41;100.00;100915.53;4810625;29;20504;-63
2023/08/31 08:53:21;;;;;;;12.07;4.65;;;;;;;15.55;100.00;100913.66;4809641;29;20049;-63
2023/08/31 08:56:10;;;;;;;10.48;4.43;;;;;;;15.54;100.00;100923.03;4809629;29;20100;-64
2023/08/31 08:58:59;;;;;;;10.90;4.97;;;;;;;15.63;100.00;100917.66;4806630;29;20135;-64
2023/08/31 09:01:48;;;;;;;9.85;4.63;;;;;;;15.62;100.00;100916.84;4810512;29;20074;-65
2023/08/31 09:04:36;;;;;;;10.15;4.35;;;;;;;15.63;100.00;100918.47;4796807;29;20424;-65
2023/08/31 09:07:24;;;;;;;12.73;4.20;;;;;;;15.66;100.00;100919.84;4796579;29;20054;-65
2023/08/31 09:10:12;;;;;;;10.48;4.53;;;;;;;15.77;100.00;100922.13;4807735;29;20138;-65
2023/08/31 09:13:00;;;;;;;11.32;4.07;;;;;;;15.87;100.00;100926.63;4809621;29;20055;-62
2023/08/31 09:15:49;;;;;;;9.40;4.40;;;;;;;15.84;100.00;100923.66;4796676;29;20133;-65
2023/08/31 09:18:37;;;;;;;8.43;4.40;;;;;;;15.85;100.00;100917.88;4135891;29;10000402;-63
2023/08/31 09:21:46;;;;;;;10.65;4.32;;;;;;;15.89;100.00;100927.13;4806411;29;20067;-65
2023/08/31 09:24:42;;;;;;;10.55;4.25;;;;;;;16.00;100.00;100922.28;4773559;29;20722;-63
2023/08/31 09:27:32;;;;;;;13.55;4.20;;;;;;;16.10;100.00;100927.59;4789858;29;20050;-64
2023/08/31 09:30:20;;;;;;;7.97;3.58;;;;;;;16.13;100.00;100929.75;4793672;29;20047;-64
2023/08/31 09:33:10;;;;;;;11.80;4.90;;;;;;;16.12;100.00;100928.13;4808580;29;20145;-65
2023/08/31 09:36:01;;;;;;;10.20;3.95;;;;;;;16.21;100.00;100931.00;4813367;29;20050;-64
2023/08/31 09:38:49;;;;;;;7.60;3.75;;;;;;;16.23;100.00;100925.97;4798227;29;20055;-64
2023/08/31 09:41:54;;;;;;;7.68;3.85;;;;;;;16.23;100.00;100936.16;4811359;29;20050;-64
2023/08/31 09:44:44;;;;;;;10.02;4.20;;;;;;;16.16;99.38;100937.41;4801162;29;20175;-64
2023/08/31 09:47:32;;;;;;;12.32;4.55;;;;;;;16.14;99.14;100939.63;4808779;29;20126;-63
2023/08/31 09:50:21;;;;;;;10.38;3.92;;;;;;;16.09;99.54;100945.22;4794213;29;20062;-65
2023/08/31 09:53:10;;;;;;;12.10;3.90;;;;;;;16.03;97.32;100934.63;4809572;29;20137;-64
2023/08/31 09:56:00;;;;;;;11.95;4.30;;;;;;;16.04;97.21;100934.28;4806818;29;20051;-63
2023/08/31 09:58:48;;;;;;;8.57;3.65;;;;;;;16.03;94.58;100929.94;4808757;29;20047;-64
2023/08/31 10:01:36;;;;;;;9.48;3.47;;;;;;;16.03;94.99;100935.44;4808732;29;20063;-61
2023/08/31 10:04:24;;;;;;;8.45;3.45;;;;;;;16.02;95.72;100942.06;4795397;29;20055;-64
2023/08/31 10:07:13;;;;;;;8.75;3.78;;;;;;;16.04;93.63;100942.53;4806594;29;20411;-63
2023/08/31 10:10:02;;;;;;;13.35;3.83;;;;;;;16.06;93.18;100943.06;4796169;29;20047;-62
2023/08/31 10:12:51;;;;;;;11.13;4.20;;;;;;;16.14;93.05;100939.63;4808657;29;20055;-62
2023/08/31 10:15:39;;;;;;;11.50;4.55;;;;;;;16.25;93.63;100942.19;4807066;29;20500;-62
2023/08/31 10:18:28;;;;;;;11.23;5.07;;;;;;;16.26;93.59;100938.31;4463093;29;10000965;-64
2023/08/31 10:21:17;;;;;;;12.55;5.15;;;;;;;16.41;94.46;100935.28;4787843;29;20192;-63
2023/08/31 10:24:08;;;;;;;10.60;3.40;;;;;;;16.49;94.00;100931.00;4786215;29;20058;-63
2023/08/31 10:26:56;;;;;;;14.05;6.20;;;;;;;16.56;94.82;100932.22;4789527;29;20518;-62
2023/08/31 10:29:44;;;;;;;15.90;6.93;;;;;;;16.65;97.11;100912.28;4804616;29;20090;-65
2023/08/31 10:32:32;;;;;;;8.85;3.80;;;;;;;16.67;94.48;100910.84;4792111;29;20062;-66
2023/08/31 10:35:20;;;;;;;7.05;3.20;;;;;;;16.70;91.84;100915.72;4805147;29;20062;-64
2023/08/31 10:38:15;;;;;;;16.48;6.60;;;;;;;16.77;94.19;100916.13;4803409;29;20187;-63
2023/08/31 10:41:07;;;;;;;10.52;3.72;;;;;;;16.95;97.58;100906.13;4792807;29;20046;-65
2023/08/31 10:44:00;;;;;;;10.13;4.30;;;;;;;17.09;91.95;100910.78;4805651;29;20043;-65
2023/08/31 10:46:49;;;;;;;12.27;5.22;;;;;;;17.20;95.82;100910.25;4781988;29;20102;-63
2023/08/31 10:49:38;;;;;;;10.95;4.60;;;;;;;17.23;94.60;100917.09;4807311;29;20077;-65
2023/08/31 10:52:26;;;;;;;11.35;4.03;;;;;;;17.16;90.95;100913.94;4809804;29;20058;-64
2023/08/31 10:55:32;;;;;;;10.32;3.30;;;;;;;17.16;88.46;100914.75;4807835;29;20059;-63
2023/08/31 10:58:20;;;;;;;6.28;3.10;;;;;;;17.19;87.18;100914.13;4806314;29;20058;-64
2023/08/31 11:01:08;;;;;;;9.55;3.20;;;;;;;17.21;87.32;100908.31;4793051;29;20481;-64
2023/08/31 11:04:10;;;;;;;10.15;3.45;;;;;;;17.12;85.22;100910.97;5129908;27;1258360;-65
2023/08/31 11:07:18;;;;;;;14.82;5.72;;;;;;;17.09;86.54;100913.53;5150277;27;20509;-64
2023/08/31 11:10:16;;;;;;;10.85;4.70;;;;;;;17.10;86.82;100906.91;5117005;28;20050;-65
2023/08/31 11:13:07;;;;;;;7.00;3.50;;;;;;;17.11;85.52;100911.31;5131676;28;20053;-65
2023/08/31 11:15:55;;;;;;;11.23;3.42;;;;;;;17.20;85.97;100907.50;5115306;28;20035;-65
2023/08/31 11:18:43;;;;;;;6.47;2.85;;;;;;;17.21;80.61;100919.31;5139119;27;20062;-65
2023/08/31 11:21:32;;;;;;;6.10;2.88;;;;;;;17.27;78.72;100918.09;5136390;27;20074;-64
2023/08/31 11:24:21;;;;;;;7.43;3.30;;;;;;;17.35;81.06;100919.28;5135518;27;20045;-65
2023/08/31 11:27:10;;;;;;;8.48;3.47;;;;;;;17.46;83.22;100918.75;5137262;27;20046;-64
2023/08/31 11:29:58;;;;;;;7.53;3.10;;;;;;;17.56;83.09;100928.69;5135002;27;20166;-64
2023/08/31 11:32:50;;;;;;;7.85;3.35;;;;;;;17.52;87.85;100935.16;5149602;27;20192;-64
2023/08/31 11:35:46;;;;;;;9.63;3.80;;;;;;;17.29;92.12;100926.84;5150608;27;20142;-64
2023/08/31 11:38:34;;;;;;;7.32;3.13;;;;;;;17.11;94.67;100919.56;5136453;27;20417;-63
2023/08/31 11:41:22;;;;;;;13.13;3.47;;;;;;;16.97;93.82;100923.16;5122262;27;20043;-64
2023/08/31 11:44:13;;;;;;;10.20;3.60;;;;;;;16.89;94.72;100934.09;5136607;27;20129;-64
2023/08/31 11:47:02;;;;;;;6.72;3.58;;;;;;;16.84;96.47;100937.75;5121887;27;20046;-64
2023/08/31 11:49:50;;;;;;;6.78;3.40;;;;;;;16.82;97.72;100940.81;5121675;27;20047;-64
2023/08/31 11:52:38;;;;;;;12.27;4.60;;;;;;;16.77;96.63;100940.06;5135738;27;20441;-65
2023/08/31 11:55:28;;;;;;;7.45;3.40;;;;;;;16.71;95.35;100935.78;5152840;27;20465;-64
2023/08/31 11:58:16;;;;;;;8.65;3.58;;;;;;;16.64;96.71;100960.13;5151338;27;20058;-63
2023/08/31 12:01:04;;;;;;;8.85;4.00;;;;;;;16.55;100.00;100969.13;5136265;27;20183;-64
2023/08/31 12:03:54;;;;;;;10.00;3.97;;;;;;;16.47;100.00;100956.06;5152493;27;20409;-65
2023/08/31 12:06:46;;;;;;;9.85;4.55;;;;;;;16.32;100.00;100956.34;5151560;27;20046;-63
2023/08/31 12:09:34;;;;;;;9.20;3.92;;;;;;;16.29;100.00;100960.53;5158430;27;20066;-64
2023/08/31 12:12:23;;;;;;;7.07;3.42;;;;;;;16.26;100.00;100965.78;5145309;27;20054;-63
2023/08/31 12:15:12;;;;;;;12.30;3.65;;;;;;;16.28;100.00;100958.06;5127286;27;20103;-64
2023/08/31 12:18:10;;;;;;;9.55;3.70;;;;;;;16.26;100.00;100960.31;5126632;27;20055;-63
2023/08/31 12:20:59;;;;;;;12.20;3.75;;;;;;;16.24;100.00;100968.88;5152614;27;20061;-60
2023/08/31 12:23:46;;;;;;;8.82;3.72;;;;;;;16.28;100.00;100969.88;5138791;27;20067;-60
2023/08/31 12:26:35;;;;;;;7.40;3.08;;;;;;;16.37;100.00;100970.00;5124006;27;20528;-65
2023/08/31 12:29:23;;;;;;;6.53;3.33;;;;;;;16.39;100.00;100965.03;5120989;27;20126;-63
2023/08/31 12:32:11;;;;;;;7.50;3.20;;;;;;;16.40;100.00;100961.13;5137292;27;20043;-64
2023/08/31 12:34:59;;;;;;;7.88;3.03;;;;;;;16.43;100.00;100960.56;5137167;27;20410;-64
2023/08/31 12:37:47;;;;;;;8.43;3.47;;;;;;;16.48;100.00;100963.19;5119517;27;20127;-64
2023/08/31 12:40:35;;;;;;;9.00;3.17;;;;;;;16.57;100.00;100960.53;5120265;27;20475;-64
2023/08/31 12:43:24;;;;;;;5.88;2.83;;;;;;;16.72;100.00;100959.44;5128333;27;20128;-65
2023/08/31 12:46:13;;;;;;;7.93;3.08;;;;;;;16.89;100.00;100956.09;5138788;27;20043;-65
2023/08/31 12:49:03;;;;;;;9.13;3.53;;;;;;;17.02;100.00;100958.00;5137739;27;20043;-63
2023/08/31 12:51:51;;;;;;;9.52;3.80;;;;;;;17.08;100.00;100953.19;5127522;28;20050;-64
2023/08/31 12:54:39;;;;;;;7.30;3.45;;;;;;;17.12;100.00;100943.22;5106703;28;20177;-64
2023/08/31 12:57:27;;;;;;;10.93;4.10;;;;;;;17.14;100.00;100941.78;5109361;27;20050;-62